Time;durP1;ratioP1;P1;durP2;ratioP2;P2;SDS_P1;SDS_P2;PMS_P1;PMS_P2;Temp;Humidity;BMP_temperature;BMP_pressure;BME280_temperature;BME280_humidity;BME280_pressure;Samples;Min_cycle;Max_cycle;Signal;HPM_P1;HPM_P2
2021/06/07 00:03:51;;;;;;;;;;;15.50;99.90;;;;;;8328706;28;19913;-63
2021/06/07 00:07:51;;;;;;;;;;;15.40;99.90;;;;;;8361342;28;20398;-63
2021/06/07 00:11:54;;;;;;;;;;;15.40;99.90;;;;;;8361529;28;19913;-63
2021/06/07 00:15:55;;;;;;;;;;;15.40;99.90;;;;;;8343428;28;19955;-63
2021/06/07 00:19:55;;;;;;;;;;;15.50;99.90;;;;;;8361449;28;19909;-63
2021/06/07 00:23:57;;;;;;;;;;;15.40;99.90;;;;;;8345405;28;19955;-63
2021/06/07 00:27:57;;;;;;;;;;;15.40;99.90;;;;;;8327183;28;19916;-63
2021/06/07 00:31:58;;;;;;;;;;;15.50;99.90;;;;;;8327797;28;19952;-63
2021/06/07 00:35:59;;;;;;;;;;;15.40;99.90;;;;;;8327306;28;19953;-64
2021/06/07 00:39:59;;;;;;;;;;;15.40;99.90;;;;;;8327089;28;19918;-63
2021/06/07 00:44:00;;;;;;;;;;;15.50;99.90;;;;;;8327185;28;19936;-64
2021/06/07 00:48:02;;;;;;;;;;;15.50;99.90;;;;;;8309249;28;19910;-63
2021/06/07 00:52:02;;;;;;;;;;;15.40;99.90;;;;;;8326834;28;20015;-63
2021/06/07 00:56:04;;;;;;;;;;;15.50;99.90;;;;;;8326497;28;19963;-64
2021/06/07 01:00:05;;;;;;;;;;;15.50;99.90;;;;;;8326732;28;19915;-63
2021/06/07 01:04:06;;;;;;;;;;;15.50;99.90;;;;;;8328667;28;19914;-64
2021/06/07 01:08:07;;;;;;;;;;;15.60;99.90;;;;;;8359618;28;20019;-64
2021/06/07 01:12:07;;;;;;;;;;;15.50;99.90;;;;;;8359948;28;20001;-63
2021/06/07 01:16:09;;;;;;;;;;;15.50;99.90;;;;;;8359603;28;19909;-64
2021/06/07 01:20:10;;;;;;;;;;;15.50;99.90;;;;;;8359548;28;19960;-64
2021/06/07 01:24:11;;;;;;;;;;;15.50;99.90;;;;;;8341372;28;19928;-64
2021/06/07 01:28:13;;;;;;;;;;;15.50;99.90;;;;;;8325976;28;19916;-63
2021/06/07 01:32:13;;;;;;;;;;;15.60;99.90;;;;;;8326330;28;19923;-63
2021/06/07 01:36:14;;;;;;;;;;;15.60;99.90;;;;;;8325815;28;19909;-63
2021/06/07 01:40:17;;;;;;;;;;;15.60;99.90;;;;;;8325037;28;19917;-63
2021/06/07 01:44:17;;;;;;;;;;;15.60;99.90;;;;;;8325885;28;20385;-63
2021/06/07 01:48:18;;;;;;;;;;;15.60;99.90;;;;;;8325443;28;19917;-63
2021/06/07 01:52:19;;;;;;;;;;;15.70;99.90;;;;;;8308038;28;19909;-63
2021/06/07 01:56:20;;;;;;;;;;;15.60;99.90;;;;;;8307746;28;19916;-63
2021/06/07 02:00:21;;;;;;;;;;;15.60;99.90;;;;;;8325068;28;19942;-63
2021/06/07 02:04:21;;;;;;;;;;;15.60;99.90;;;;;;8329906;28;19908;-63
2021/06/07 02:08:22;;;;;;;;;;;15.60;99.90;;;;;;8358233;28;20386;-63
2021/06/07 02:12:23;;;;;;;;;;;15.50;99.90;;;;;;8358495;28;19908;-63
2021/06/07 02:16:24;;;;;;;;;;;15.70;99.90;;;;;;8358460;28;19932;-64
2021/06/07 02:20:25;;;;;;;;;;;15.70;99.90;;;;;;8358104;28;19909;-63
2021/06/07 02:24:26;;;;;;;;;;;15.60;99.90;;;;;;8338117;28;20023;-64
2021/06/07 02:28:26;;;;;;;;;;;15.60;99.90;;;;;;8325049;28;19909;-63
2021/06/07 02:32:27;;;;;;;;;;;15.60;99.90;;;;;;8325275;28;19985;-64
2021/06/07 02:36:31;;;;;;;;;;;15.60;99.90;;;;;;8324972;28;19957;-64
2021/06/07 02:40:32;;;;;;;;;;;15.60;99.90;;;;;;8324747;28;19928;-64
2021/06/07 02:44:32;;;;;;;;;;;15.60;99.90;;;;;;8324788;28;20470;-63
2021/06/07 02:48:33;;;;;;;;;;;15.50;99.90;;;;;;8324594;28;19929;-64
2021/06/07 02:52:34;;;;;;;;;;;15.60;99.90;;;;;;8329908;28;19910;-63
2021/06/07 02:56:34;;;;;;;;;;;15.60;99.90;;;;;;8330312;28;19935;-63
2021/06/07 03:00:40;;;;;;;;;;;15.60;99.90;;;;;;8330034;28;19910;-64
2021/06/07 03:04:40;;;;;;;;;;;15.60;99.90;;;;;;8337108;28;19919;-64
2021/06/07 03:08:41;;;;;;;;;;;15.60;99.90;;;;;;8363063;28;19943;-64
2021/06/07 03:12:42;;;;;;;;;;;15.60;99.90;;;;;;8363269;28;19971;-63
2021/06/07 03:16:42;;;;;;;;;;;15.70;99.90;;;;;;8362722;28;19934;-64
2021/06/07 03:20:43;;;;;;;;;;;15.60;99.90;;;;;;8362915;28;20501;-64
2021/06/07 03:24:43;;;;;;;;;;;15.60;99.90;;;;;;8340540;28;19956;-63
2021/06/07 03:28:43;;;;;;;;;;;15.50;99.90;;;;;;8329428;28;20287;-64
2021/06/07 03:32:44;;;;;;;;;;;15.50;99.90;;;;;;8349354;28;19947;-64
2021/06/07 03:36:45;;;;;;;;;;;15.60;99.90;;;;;;8329519;28;19963;-64
2021/06/07 03:40:47;;;;;;;;;;;15.60;99.90;;;;;;8331232;28;20423;-64
2021/06/07 03:44:47;;;;;;;;;;;15.70;99.90;;;;;;8328699;28;19919;-64
2021/06/07 03:48:48;;;;;;;;;;;15.70;99.90;;;;;;8325546;28;19909;-64
2021/06/07 03:52:49;;;;;;;;;;;15.60;99.90;;;;;;8310178;28;19924;-64
2021/06/07 03:56:49;;;;;;;;;;;15.70;99.90;;;;;;8359581;28;20015;-64
2021/06/07 04:00:50;;;;;;;;;;;15.70;99.90;;;;;;8354649;28;20013;-64
2021/06/07 04:04:50;;;;;;;;;;;15.60;99.90;;;;;;8337143;28;19995;-64
2021/06/07 04:08:55;;;;;;;;;;;15.70;99.90;;;;;;8355097;28;19909;-64
2021/06/07 04:12:56;;;;;;;;;;;15.70;99.90;;;;;;8346892;28;19951;-64
2021/06/07 04:16:57;;;;;;;;;;;15.70;99.90;;;;;;8361265;28;20290;-63
2021/06/07 04:20:58;;;;;;;;;;;15.80;99.90;;;;;;8360635;28;19999;-65
2021/06/07 04:24:58;;;;;;;;;;;15.80;99.90;;;;;;8336493;28;19913;-64
2021/06/07 04:28:58;;;;;;;;;;;15.70;99.90;;;;;;8309834;28;19990;-64
2021/06/07 04:33:00;;;;;;;;;;;15.70;99.90;;;;;;8310101;28;20364;-64
2021/06/07 04:37:00;;;;;;;;;;;15.90;99.90;;;;;;8309544;28;19910;-64
2021/06/07 04:41:01;;;;;;;;;;;15.90;99.90;;;;;;8326915;28;19968;-64
2021/06/07 04:45:02;;;;;;;;;;;16.00;99.90;;;;;;8324493;28;20329;-64
2021/06/07 04:49:02;;;;;;;;;;;16.00;99.90;;;;;;8327086;28;19960;-64
2021/06/07 04:53:03;;;;;;;;;;;16.00;99.90;;;;;;8326691;28;20295;-64
2021/06/07 04:57:04;;;;;;;;;;;16.10;99.90;;;;;;8308771;28;19909;-64
2021/06/07 05:01:07;;;;;;;;;;;16.10;99.90;;;;;;8324954;28;19924;-64
2021/06/07 05:05:08;;;;;;;;;;;16.30;99.90;;;;;;8325435;28;19909;-64
2021/06/07 05:09:08;;;;;;;;;;;16.40;99.90;;;;;;8325040;28;19935;-64
2021/06/07 05:13:09;;;;;;;;;;;16.40;99.90;;;;;;8325676;28;19910;-64
2021/06/07 05:17:09;;;;;;;;;;;16.40;99.90;;;;;;8325871;28;19913;-64
2021/06/07 05:21:10;;;;;;;;;;;16.40;99.90;;;;;;8325340;28;20013;-63
2021/06/07 05:25:11;;;;;;;;;;;16.50;99.90;;;;;;8335095;28;20352;-63
2021/06/07 05:29:11;;;;;;;;;;;16.40;99.90;;;;;;8324180;28;20311;-63
2021/06/07 05:33:12;;;;;;;;;;;16.40;99.90;;;;;;8319779;28;19909;-63
2021/06/07 05:37:12;;;;;;;;;;;16.40;99.90;;;;;;8293148;28;19909;-63
2021/06/07 05:41:13;;;;;;;;;;;16.40;99.90;;;;;;8292997;28;19918;-63
2021/06/07 05:45:14;;;;;;;;;;;16.40;99.90;;;;;;8311384;28;20375;-63
2021/06/07 05:49:15;;;;;;;;;;;16.70;99.90;;;;;;8325006;28;19919;-63
2021/06/07 05:53:17;;;;;;;;;;;17.00;99.90;;;;;;8329763;28;20393;-64
2021/06/07 05:57:17;;;;;;;;;;;17.10;99.90;;;;;;8343807;28;19913;-64
2021/06/07 06:01:18;;;;;;;;;;;17.30;99.90;;;;;;8328997;28;19924;-65
2021/06/07 06:05:18;;;;;;;;;;;17.30;99.90;;;;;;8335989;28;20367;-64
2021/06/07 06:09:19;;;;;;;;;;;17.30;99.90;;;;;;8312052;28;19919;-65
2021/06/07 06:13:19;;;;;;;;;;;17.10;99.90;;;;;;8324595;28;19917;-65
2021/06/07 06:17:20;;;;;;;;;;;17.00;99.90;;;;;;8323980;28;19962;-65
2021/06/07 06:21:20;;;;;;;;;;;17.00;99.90;;;;;;8323872;28;19948;-64
2021/06/07 06:25:21;;;;;;;;;;;17.00;99.90;;;;;;8339370;28;19921;-64
2021/06/07 06:29:21;;;;;;;;;;;17.00;99.90;;;;;;8348511;28;20272;-65
2021/06/07 06:33:22;;;;;;;;;;;17.20;99.90;;;;;;8339762;28;20489;-64
2021/06/07 06:37:22;;;;;;;;;;;17.40;99.90;;;;;;8342764;28;19917;-64
2021/06/07 06:41:23;;;;;;;;;;;17.50;99.90;;;;;;8330298;28;19924;-63
2021/06/07 06:45:24;;;;;;;;;;;17.50;99.90;;;;;;8331647;28;20510;-64
2021/06/07 06:49:24;;;;;;;;;;;17.50;99.90;;;;;;8331354;28;19909;-62
2021/06/07 06:53:25;;;;;;;;;;;17.50;99.90;;;;;;8329731;28;20050;-63
2021/06/07 06:57:26;;;;;;;;;;;17.60;99.90;;;;;;8347631;28;19913;-62
2021/06/07 07:01:26;;;;;;;;;;;17.80;99.90;;;;;;8339778;28;20023;-65
2021/06/07 07:05:27;;;;;;;;;;;18.10;99.90;;;;;;8312593;28;19909;-64
2021/06/07 07:09:27;;;;;;;;;;;18.30;99.90;;;;;;8312600;28;20009;-64
2021/06/07 07:13:28;;;;;;;;;;;18.40;99.90;;;;;;8346063;28;19917;-64
2021/06/07 07:17:29;;;;;;;;;;;18.70;99.90;;;;;;8325945;28;19920;-64
2021/06/07 07:21:29;;;;;;;;;;;19.00;99.90;;;;;;8345796;28;20359;-64
2021/06/07 07:25:30;;;;;;;;;;;19.50;99.90;;;;;;8346962;28;19951;-65
2021/06/07 07:29:32;;;;;;;;;;;19.80;99.90;;;;;;8327839;28;19968;-65
2021/06/07 07:33:37;;;;;;;;;;;20.40;99.90;;;;;;8342049;28;19909;-64
2021/06/07 07:37:38;;;;;;;;;;;20.80;99.90;;;;;;8328440;28;19964;-64
2021/06/07 07:41:39;;;;;;;;;;;21.20;99.90;;;;;;8327535;28;19921;-65
2021/06/07 07:45:40;;;;;;;;;;;21.30;99.90;;;;;;8309402;28;19914;-65
2021/06/07 07:49:40;;;;;;;;;;;21.10;99.90;;;;;;8328145;28;19921;-64
2021/06/07 07:53:41;;;;;;;;;;;21.20;99.90;;;;;;8335246;28;19909;-64
2021/06/07 07:57:42;;;;;;;;;;;21.50;99.90;;;;;;8345408;28;19913;-64
2021/06/07 08:01:43;;;;;;;;;;;22.00;99.90;;;;;;8320448;28;19917;-64
2021/06/07 08:05:43;;;;;;;;;;;22.40;99.90;;;;;;8318950;28;19913;-64
2021/06/07 08:09:44;;;;;;;;;;;22.80;99.90;;;;;;8326970;28;19913;-65
2021/06/07 08:13:44;;;;;;;;;;;23.00;99.90;;;;;;8326935;28;19921;-64
2021/06/07 08:17:45;;;;;;;;;;;23.40;99.90;;;;;;8326780;28;19920;-65
2021/06/07 08:21:45;;;;;;;;;;;23.30;99.90;;;;;;8324263;28;19917;-65
2021/06/07 08:25:46;;;;;;;;;;;23.80;99.90;;;;;;8323271;28;19917;-64
2021/06/07 08:29:46;;;;;;;;;;;23.90;99.90;;;;;;8327413;28;19935;-64
2021/06/07 08:33:47;;;;;;;;;;;23.70;99.90;;;;;;8342957;28;20007;-64
2021/06/07 08:37:47;;;;;;;;;;;23.60;99.90;;;;;;8342792;28;20004;-65
2021/06/07 08:41:48;;;;;;;;;;;23.60;99.90;;;;;;8325962;28;19917;-65
2021/06/07 08:45:49;;;;;;;;;;;23.70;99.90;;;;;;8324484;28;19913;-65
2021/06/07 08:49:49;;;;;;;;;;;23.40;99.90;;;;;;8325093;28;20291;-65
2021/06/07 08:53:50;;;;;;;;;;;24.20;99.90;;;;;;8331393;28;20011;-65
2021/06/07 08:57:52;;;;;;;;;;;25.00;99.90;;;;;;8345202;28;19959;-65
2021/06/07 09:01:55;;;;;;;;;;;25.20;99.90;;;;;;8323618;28;19917;-64
2021/06/07 09:05:57;;;;;;;;;;;24.90;99.90;;;;;;8325249;28;19920;-65
2021/06/07 09:10:08;;;;;;;;;;;24.50;99.90;;;;;;8343747;28;19921;-64
2021/06/07 09:14:37;;;;;;;;;;;24.20;99.90;;;;;;8353486;28;19918;-65
2021/06/07 09:18:42;;;;;;;;;;;24.30;99.90;;;;;;8311661;28;19913;-64
2021/06/07 09:22:50;;;;;;;;;;;24.10;99.90;;;;;;8307268;28;19917;-64
2021/06/07 09:26:50;;;;;;;;;;;23.70;99.90;;;;;;8305629;28;19909;-64
2021/06/07 09:30:55;;;;;;;;;;;23.50;99.90;;;;;;8325360;28;19917;-64
2021/06/07 09:35:08;;;;;;;;;;;24.00;99.90;;;;;;8320927;28;20291;-64
2021/06/07 09:39:16;;;;;;;;;;;24.80;99.90;;;;;;8342453;28;19999;-64
2021/06/07 09:43:18;;;;;;;;;;;25.20;99.90;;;;;;8341680;28;19921;-65
2021/06/07 09:47:18;;;;;;;;;;;24.80;99.90;;;;;;8341113;28;19953;-64
2021/06/07 09:51:19;;;;;;;;;;;24.40;99.90;;;;;;8328845;28;20402;-64
2021/06/07 09:55:24;;;;;;;;;;;24.80;99.90;;;;;;8324724;28;19917;-65
2021/06/07 09:59:29;;;;;;;;;;;25.30;99.90;;;;;;8326598;28;19928;-65
2021/06/07 10:03:39;;;;;;;;;;;25.70;99.90;;;;;;8336578;28;19921;-64
2021/06/07 10:07:51;;;;;;;;;;;26.20;99.90;;;;;;8331628;28;20005;-65
2021/06/07 10:11:55;;;;;;;;;;;26.30;99.90;;;;;;8331520;28;19990;-64
2021/06/07 10:15:56;;;;;;;;;;;26.00;99.90;;;;;;8331937;28;19909;-65
2021/06/07 10:24:11;;;;;;;;;;;26.40;99.90;;;;;;8327129;28;19924;-65
2021/06/07 10:28:12;;;;;;;;;;;26.20;99.90;;;;;;8330843;28;20482;-65
2021/06/07 10:32:14;;;;;;;;;;;25.90;99.90;;;;;;8330075;28;19913;-64
2021/06/07 10:36:23;;;;;;;;;;;25.30;99.90;;;;;;8330165;28;19914;-65
2021/06/07 10:40:24;;;;;;;;;;;25.30;99.90;;;;;;8330966;28;19921;-65
2021/06/07 10:44:38;;;;;;;;;;;24.90;99.90;;;;;;8330417;28;19924;-65
2021/06/07 10:48:39;;;;;;;;;;;25.30;99.90;;;;;;8329639;28;20011;-65
2021/06/07 10:52:41;;;;;;;;;;;25.80;99.90;;;;;;8334528;28;19944;-66
2021/06/07 10:56:42;;;;;;;;;;;26.20;99.90;;;;;;8329918;28;20028;-65
2021/06/07 11:00:42;;;;;;;;;;;25.30;99.90;;;;;;8329317;28;19920;-65
2021/06/07 11:04:43;;;;;;;;;;;25.20;99.90;;;;;;8339927;28;19917;-65
2021/06/07 11:08:59;;;;;;;;;;;25.40;99.90;;;;;;8354178;28;19920;-65
2021/06/07 11:13:01;;;;;;;;;;;25.60;99.90;;;;;;8352849;28;19913;-65
2021/06/07 11:17:22;;;;;;;;;;;25.70;99.90;;;;;;8340862;28;19948;-65
2021/06/07 11:21:25;;;;;;;;;;;25.80;99.90;;;;;;8338899;28;19936;-65
2021/06/07 11:25:27;;;;;;;;;;;26.90;99.90;;;;;;8333754;28;20051;-65
2021/06/07 11:29:29;;;;;;;;;;;28.40;99.90;;;;;;8329595;28;19924;-65
2021/06/07 11:33:46;;;;;;;;;;;29.30;99.90;;;;;;8329519;28;19913;-65
2021/06/07 11:37:47;;;;;;;;;;;29.70;99.90;;;;;;8309335;28;19917;-64
2021/06/07 11:41:54;;;;;;;;;;;30.50;99.90;;;;;;8329017;28;20449;-64
2021/06/07 11:45:55;;;;;;;;;;;31.80;99.90;;;;;;8326823;28;19913;-64
2021/06/07 11:49:55;;;;;;;;;;;30.70;98.70;;;;;;8327999;28;19913;-65
2021/06/07 11:53:56;;;;;;;;;;;30.50;99.90;;;;;;8310869;28;19913;-65
2021/06/07 11:58:15;;;;;;;;;;;30.50;99.90;;;;;;8310061;28;20019;-64
2021/06/07 12:02:19;;;;;;;;;;;28.90;98.50;;;;;;8327698;28;20052;-64
2021/06/07 12:06:24;;;;;;;;;;;27.20;99.90;;;;;;8327515;28;20358;-64
2021/06/07 12:10:24;;;;;;;;;;;26.60;99.90;;;;;;8327382;28;19913;-64
2021/06/07 12:14:26;;;;;;;;;;;25.70;99.90;;;;;;8327519;28;20431;-63
2021/06/07 12:18:27;;;;;;;;;;;24.90;99.90;;;;;;8326737;28;19917;-63
2021/06/07 12:22:32;;;;;;;;;;;24.50;99.90;;;;;;8325737;28;20011;-63
2021/06/07 12:30:54;;;;;;;;;;;25.60;99.90;;;;;;8301689;28;19920;-64
2021/06/07 12:35:01;;;;;;;;;;;28.00;99.90;;;;;;8334597;28;20658;-64
2021/06/07 12:39:01;;;;;;;;;;;29.20;99.90;;;;;;8348013;28;19913;-64
2021/06/07 12:43:05;;;;;;;;;;;29.50;99.90;;;;;;8313048;28;19917;-65
2021/06/07 12:47:05;;;;;;;;;;;29.30;99.90;;;;;;8331586;28;19982;-65
2021/06/07 12:51:06;;;;;;;;;;;29.30;99.90;;;;;;8308519;28;20348;-64
2021/06/07 12:55:08;;;;;;;;;;;29.60;99.90;;;;;;8338007;28;19928;-65
2021/06/07 12:59:09;;;;;;;;;;;29.90;99.90;;;;;;8351390;28;19913;-65
2021/06/07 13:03:18;;;;;;;;;;;29.10;99.90;;;;;;8340982;28;19921;-64
2021/06/07 13:07:20;;;;;;;;;;;29.20;99.90;;;;;;8320658;28;20383;-65
2021/06/07 13:11:24;;;;;;;;;;;28.70;97.70;;;;;;8308144;28;20515;-64
2021/06/07 13:15:25;;;;;;;;;;;27.70;99.90;;;;;;8325556;28;19917;-64
2021/06/07 13:19:27;;;;;;;;;;;26.50;99.90;;;;;;8325837;28;19952;-64
2021/06/07 13:23:32;;;;;;;;;;;25.50;99.90;;;;;;8307723;28;19917;-63
2021/06/07 13:27:32;;;;;;;;;;;25.80;99.90;;;;;;8322435;28;20008;-64
2021/06/07 13:31:43;;;;;;;;;;;28.60;99.90;;;;;;8309043;28;20307;-65
2021/06/07 13:35:44;;;;;;;;;;;28.60;99.90;;;;;;8326448;28;19968;-65
2021/06/07 13:39:45;;;;;;;;;;;27.90;99.90;;;;;;8325343;28;19987;-65
2021/06/07 13:43:54;;;;;;;;;;;27.40;99.90;;;;;;8305968;28;19913;-66
2021/06/07 13:47:56;;;;;;;;;;;27.60;99.90;;;;;;8323574;28;19917;-65
2021/06/07 13:51:57;;;;;;;;;;;28.20;99.90;;;;;;8308004;28;19909;-66
2021/06/07 13:55:58;;;;;;;;;;;28.10;99.90;;;;;;8324643;28;20486;-65
2021/06/07 13:59:58;;;;;;;;;;;28.00;99.90;;;;;;8334054;28;19936;-66
2021/06/07 14:04:00;;;;;;;;;;;;;;;;;;8329086;28;19925;-65
2021/06/07 14:08:00;;;;;;;;;;;33.50;94.30;;;;;;8330905;28;20271;-65
2021/06/07 14:12:01;;;;;;;;;;;34.50;90.10;;;;;;8351071;28;19913;-67
2021/06/07 14:16:01;;;;;;;;;;;32.90;99.90;;;;;;8357388;28;20017;-65
2021/06/07 14:20:04;;;;;;;;;;;30.50;99.90;;;;;;8351544;28;20455;-66
2021/06/07 14:28:23;;;;;;;;;;;27.70;99.90;;;;;;8352296;28;20017;-65
2021/06/07 14:32:24;;;;;;;;;;;26.90;99.90;;;;;;8357011;28;19913;-65
2021/06/07 14:36:25;;;;;;;;;;;26.70;99.90;;;;;;8333924;28;20008;-65
2021/06/07 14:40:25;;;;;;;;;;;26.50;99.90;;;;;;8324318;28;19917;-65
2021/06/07 14:44:26;;;;;;;;;;;27.10;99.90;;;;;;8329474;28;19933;-65
2021/06/07 14:48:27;;;;;;;;;;;;;;;;;;8345493;28;19923;-65
2021/06/07 14:52:28;;;;;;;;;;;;;;;;;;8325899;28;19924;-66
2021/06/07 14:56:28;;;;;;;;;;;31.70;91.70;;;;;;8328866;28;20397;-66
2021/06/07 15:00:29;;;;;;;;;;;31.40;91.70;;;;;;8340269;28;19913;-65
2021/06/07 15:04:29;;;;;;;;;;;30.20;93.20;;;;;;8334577;28;19940;-67
2021/06/07 15:08:30;;;;;;;;;;;29.90;94.10;;;;;;8343017;28;19931;-67
2021/06/07 15:12:30;;;;;;;;;;;32.70;92.50;;;;;;8345201;28;20429;-67
2021/06/07 15:16:31;;;;;;;;;;;36.10;70.00;;;;;;8338631;28;20569;-68
2021/06/07 15:20:31;;;;;;;;;;;38.10;60.50;;;;;;8339530;28;19916;-66
2021/06/07 15:24:32;;;;;;;;;;;36.60;59.30;;;;;;8335192;28;19916;-66
2021/06/07 15:28:32;;;;;;;;;;;34.70;64.60;;;;;;8335206;28;19975;-66
2021/06/07 15:32:33;;;;;;;;;;;31.60;71.20;;;;;;8328441;28;19914;-66
2021/06/07 15:36:34;;;;;;;;;;;29.00;82.90;;;;;;8328809;28;19916;-66
2021/06/07 15:40:34;;;;;;;;;;;27.10;90.70;;;;;;8311200;28;19917;-65
2021/06/07 15:44:35;;;;;;;;;;;25.90;96.80;;;;;;8328535;28;19983;-66
2021/06/07 15:48:38;;;;;;;;;;;24.90;99.90;;;;;;8309806;28;19920;-65
2021/06/07 15:52:39;;;;;;;;;;;24.30;99.90;;;;;;8309937;28;20423;-67
2021/06/07 15:56:39;;;;;;;;;;;23.70;99.90;;;;;;8324582;28;19914;-65
2021/06/07 16:00:41;;;;;;;;;;;23.10;99.90;;;;;;8326347;28;19939;-64
2021/06/07 16:04:42;;;;;;;;;;;21.90;99.90;;;;;;8328673;28;19967;-67
2021/06/07 16:08:42;;;;;;;;;;;21.20;99.90;;;;;;8326118;28;19913;-67
2021/06/07 16:12:43;;;;;;;;;;;20.90;99.90;;;;;;8288443;28;20315;-67
2021/06/07 16:16:49;;;;;;;;;;;20.40;99.90;;;;;;8291727;28;19914;-67
2021/06/07 16:24:51;;;;;;;;;;;19.80;99.90;;;;;;8285570;28;20032;-67
2021/06/07 16:28:52;;;;;;;;;;;19.80;99.90;;;;;;8288940;28;20383;-68
2021/06/07 16:32:52;;;;;;;;;;;19.80;99.90;;;;;;8299848;28;19995;-67
2021/06/07 16:36:53;;;;;;;;;;;19.80;99.90;;;;;;8295201;28;19918;-67
2021/06/07 16:40:54;;;;;;;;;;;19.60;99.90;;;;;;8294192;28;19924;-67
2021/06/07 16:44:54;;;;;;;;;;;19.50;99.90;;;;;;8299506;28;19913;-68
2021/06/07 16:48:55;;;;;;;;;;;19.60;99.90;;;;;;8298871;28;19953;-68
2021/06/07 16:52:55;;;;;;;;;;;19.50;99.90;;;;;;8295518;28;20381;-66
2021/06/07 16:56:56;;;;;;;;;;;19.40;99.90;;;;;;8295325;28;19914;-66
2021/06/07 17:00:56;;;;;;;;;;;19.20;99.90;;;;;;8302566;28;19955;-66
2021/06/07 17:04:57;;;;;;;;;;;19.10;99.90;;;;;;8292751;28;19941;-66
2021/06/07 17:08:58;;;;;;;;;;;19.30;99.90;;;;;;8289254;28;19921;-69
2021/06/07 17:13:02;;;;;;;;;;;19.30;99.90;;;;;;8301921;28;19927;-67
2021/06/07 17:17:03;;;;;;;;;;;19.40;99.90;;;;;;8295953;28;19913;-68
2021/06/07 17:21:04;;;;;;;;;;;19.40;99.90;;;;;;8296012;28;19952;-67
2021/06/07 17:25:05;;;;;;;;;;;19.70;99.90;;;;;;8335937;28;19917;-67
2021/06/07 17:29:06;;;;;;;;;;;19.70;99.90;;;;;;8316719;28;19948;-68
2021/06/07 17:33:07;;;;;;;;;;;19.50;99.90;;;;;;8332514;28;20398;-68
2021/06/07 17:37:07;;;;;;;;;;;19.40;99.90;;;;;;8345565;28;20004;-66
2021/06/07 17:41:08;;;;;;;;;;;19.30;99.90;;;;;;8328507;28;19917;-67
2021/06/07 17:45:08;;;;;;;;;;;19.10;99.90;;;;;;8333697;28;19913;-66
2021/06/07 17:49:09;;;;;;;;;;;19.10;99.90;;;;;;8324540;28;19909;-65
2021/06/07 17:53:09;;;;;;;;;;;19.00;99.90;;;;;;8340017;28;19909;-66
2021/06/07 17:57:10;;;;;;;;;;;19.10;99.90;;;;;;8329918;28;19925;-67
2021/06/07 18:01:11;;;;;;;;;;;19.20;99.90;;;;;;8307998;28;19963;-67
2021/06/07 18:05:12;;;;;;;;;;;19.30;99.90;;;;;;8313956;28;20013;-68
2021/06/07 18:09:12;;;;;;;;;;;19.40;99.90;;;;;;8317559;28;19913;-66
2021/06/07 18:13:13;;;;;;;;;;;19.40;99.90;;;;;;8298331;28;19963;-68
2021/06/07 18:17:14;;;;;;;;;;;19.50;99.90;;;;;;8309375;28;20422;-66
2021/06/07 18:21:15;;;;;;;;;;;19.50;99.90;;;;;;8310619;28;19917;-66
2021/06/07 18:25:15;;;;;;;;;;;19.40;99.90;;;;;;8300686;28;20303;-66
2021/06/07 18:29:16;;;;;;;;;;;19.50;99.90;;;;;;8290328;28;19924;-66
2021/06/07 18:33:16;;;;;;;;;;;19.40;99.90;;;;;;8294454;28;19917;-66
2021/06/07 18:37:17;;;;;;;;;;;18.90;99.90;;;;;;8321131;28;19917;-66
2021/06/07 18:41:18;;;;;;;;;;;18.80;99.90;;;;;;8301613;28;19924;-66
2021/06/07 18:45:19;;;;;;;;;;;18.80;99.90;;;;;;8277134;28;20020;-66
2021/06/07 18:49:19;;;;;;;;;;;18.90;99.90;;;;;;8278296;28;19917;-66
2021/06/07 18:53:21;;;;;;;;;;;18.80;99.90;;;;;;8308415;28;19914;-67
2021/06/07 18:57:22;;;;;;;;;;;18.70;99.90;;;;;;8279234;28;19921;-66
2021/06/07 19:01:22;;;;;;;;;;;18.40;99.90;;;;;;8290740;28;19956;-66
2021/06/07 19:05:23;;;;;;;;;;;18.30;99.90;;;;;;8304712;28;20003;-66
2021/06/07 19:09:23;;;;;;;;;;;18.10;99.90;;;;;;8299549;28;19961;-67
2021/06/07 19:13:24;;;;;;;;;;;18.10;99.90;;;;;;8302084;28;20478;-66
2021/06/07 19:17:25;;;;;;;;;;;18.20;99.90;;;;;;8299122;28;20015;-66
2021/06/07 19:21:25;;;;;;;;;;;18.10;99.90;;;;;;8297912;28;19921;-66
2021/06/07 19:25:26;;;;;;;;;;;18.20;99.90;;;;;;8322087;28;20402;-67
2021/06/07 19:29:27;;;;;;;;;;;18.30;99.90;;;;;;8320145;28;19917;-67
2021/06/07 19:33:27;;;;;;;;;;;18.20;99.90;;;;;;8318180;28;19939;-67
2021/06/07 19:37:28;;;;;;;;;;;18.10;99.90;;;;;;8311403;28;19917;-67
2021/06/07 19:41:28;;;;;;;;;;;18.10;99.90;;;;;;8321173;28;19921;-67
2021/06/07 19:45:29;;;;;;;;;;;18.10;99.90;;;;;;8865834;23;19991;-66
2021/06/07 19:49:29;;;;;;;;;;;18.20;99.90;;;;;;8327802;28;19928;-65
2021/06/07 19:53:30;;;;;;;;;;;18.10;99.90;;;;;;8326902;28;19992;-66
2021/06/07 19:57:30;;;;;;;;;;;18.00;99.90;;;;;;8311809;28;19925;-65
2021/06/07 20:01:31;;;;;;;;;;;18.00;99.90;;;;;;8398179;23;19958;-64
2021/06/07 20:05:34;;;;;;;;;;;18.00;99.90;;;;;;8412504;28;19920;-67
2021/06/07 20:09:35;;;;;;;;;;;17.80;99.90;;;;;;8388491;28;19912;-66
2021/06/07 20:13:36;;;;;;;;;;;17.70;99.90;;;;;;8420546;28;19913;-67
2021/06/07 20:17:36;;;;;;;;;;;17.60;99.90;;;;;;8422992;28;19959;-67
2021/06/07 20:21:37;;;;;;;;;;;17.50;99.90;;;;;;8416728;28;20348;-66
2021/06/07 20:25:38;;;;;;;;;;;17.30;99.90;;;;;;8385189;28;20369;-67
2021/06/07 20:29:38;;;;;;;;;;;17.20;99.90;;;;;;8380575;28;20374;-66
2021/06/07 20:33:40;;;;;;;;;;;17.10;99.90;;;;;;8386848;28;19917;-67
2021/06/07 20:37:40;;;;;;;;;;;17.00;99.90;;;;;;8389185;28;19928;-67
2021/06/07 20:46:20;;;;;;;;;;;16.60;99.90;;;;;;8418566;28;20030;-67
2021/06/07 20:54:59;;;;;;;;;;;16.40;99.90;;;;;;8395341;28;19919;-67
2021/06/07 21:03:37;;;;;;;;;;;15.90;99.90;;;;;;8393059;28;19970;-66
2021/06/07 21:12:16;;;;;;;;;;;15.60;99.90;;;;;;8392434;28;19915;-67
2021/06/07 21:16:16;;;;;;;;;;;15.40;99.90;;;;;;8374176;28;19909;-66
2021/06/07 21:20:18;;;;;;;;;;;15.30;99.90;;;;;;8374435;28;19915;-66
2021/06/07 21:24:18;;;;;;;;;;;15.40;99.90;;;;;;8392583;28;19912;-66
2021/06/07 21:28:19;;;;;;;;;;;15.30;99.90;;;;;;8424975;28;20002;-66
2021/06/07 21:32:19;;;;;;;;;;;15.40;99.90;;;;;;8425038;28;19908;-66
2021/06/07 21:36:21;;;;;;;;;;;15.40;99.90;;;;;;8393392;28;19913;-66
2021/06/07 21:40:22;;;;;;;;;;;15.20;99.90;;;;;;8374019;28;19916;-66
2021/06/07 21:44:22;;;;;;;;;;;15.10;99.90;;;;;;8392031;28;19958;-66
2021/06/07 21:48:26;;;;;;;;;;;15.10;99.90;;;;;;8391613;28;20428;-67
2021/06/07 21:52:27;;;;;;;;;;;15.10;99.90;;;;;;8373495;28;19908;-66
2021/06/07 21:56:27;;;;;;;;;;;15.10;99.90;;;;;;8396594;28;19908;-66
2021/06/07 22:00:28;;;;;;;;;;;15.10;99.90;;;;;;8398550;28;19923;-66
2021/06/07 22:04:28;;;;;;;;;;;15.10;99.90;;;;;;8398379;28;20370;-65
2021/06/07 22:08:29;;;;;;;;;;;15.10;99.90;;;;;;8398288;28;19909;-67
2021/06/07 22:12:29;;;;;;;;;;;15.00;99.90;;;;;;8398039;28;19909;-66
2021/06/07 22:16:30;;;;;;;;;;;15.10;99.90;;;;;;8397954;28;19962;-67
2021/06/07 22:20:30;;;;;;;;;;;15.00;99.90;;;;;;8398074;28;19913;-65
2021/06/07 22:24:31;;;;;;;;;;;14.90;99.90;;;;;;8397623;28;19913;-65
2021/06/07 22:28:31;;;;;;;;;;;14.90;99.90;;;;;;8397328;28;19909;-64
2021/06/07 22:32:32;;;;;;;;;;;15.00;99.90;;;;;;8397448;28;19995;-66
2021/06/07 22:36:33;;;;;;;;;;;15.10;99.90;;;;;;8397581;28;19955;-64
2021/06/07 22:40:34;;;;;;;;;;;15.00;99.90;;;;;;8396888;28;19908;-66
2021/06/07 22:44:34;;;;;;;;;;;14.90;99.90;;;;;;8397319;28;19920;-66
2021/06/07 22:48:35;;;;;;;;;;;14.70;99.90;;;;;;8394731;28;19916;-66
2021/06/07 22:52:36;;;;;;;;;;;14.60;99.90;;;;;;8390896;28;19962;-66
2021/06/07 22:56:36;;;;;;;;;;;14.60;99.90;;;;;;8392800;28;19962;-65
2021/06/07 23:00:37;;;;;;;;;;;14.70;99.90;;;;;;8374628;28;20373;-66
2021/06/07 23:04:37;;;;;;;;;;;14.70;99.90;;;;;;8392894;28;19912;-65
2021/06/07 23:08:38;;;;;;;;;;;14.60;99.90;;;;;;8393945;28;19964;-66
2021/06/07 23:12:38;;;;;;;;;;;14.60;99.90;;;;;;8395998;28;19908;-65
2021/06/07 23:16:39;;;;;;;;;;;14.60;99.90;;;;;;8396314;28;20376;-66
2021/06/07 23:20:44;;;;;;;;;;;14.70;99.90;;;;;;8396179;28;20431;-65
2021/06/07 23:24:45;;;;;;;;;;;14.80;99.90;;;;;;8396035;28;20374;-66
2021/06/07 23:28:45;;;;;;;;;;;14.70;99.90;;;;;;8396046;28;19963;-66
2021/06/07 23:32:46;;;;;;;;;;;14.80;99.90;;;;;;8395770;28;20365;-67
2021/06/07 23:36:46;;;;;;;;;;;14.90;99.90;;;;;;8377683;28;19909;-66
2021/06/07 23:40:47;;;;;;;;;;;14.80;99.90;;;;;;8377603;28;19908;-66
2021/06/07 23:45:07;;;;;;;;;;;14.70;99.90;;;;;;8361259;28;20100;-65
2021/06/07 23:49:08;;;;;;;;;;;14.60;99.90;;;;;;8395579;28;19909;-67
2021/06/07 23:53:08;;;;;;;;;;;14.50;99.90;;;;;;8377196;28;19908;-66
2021/06/07 23:57:09;;;;;;;;;;;14.80;99.90;;;;;;8394499;28;19913;-66
